Hl Atlas — D7PA — position and weather

sailwx.info

Track history (hours):
 
Tides and Currents Weather Stations Pressure Air Temp Water Temp Dewpoint Dewpoint Depression Visibility Wind Speed Wind Dir Waves Ship Positions

Hl Atlas

Last reported at 2017-Nov-06 01:33 UTC. Time now 2017-Dec-12 19:50 UTC.
Position S 27°28' E 153°52'.
Warning: this ship's position is 36 days out of date.

Length 270 m; draft 15.3 m.

Type: Cargo ship. MMSI: 440332000.

Date/timePositionNaut miles runAvg speedWind from/ knotsBaromVisibWave heightAir tempDewpointWater temp
2017-Nov-06 01:33S 27°28' E 153°52'4 9.1
2017-Nov-06 01:05S 27°32' E 153°52'1 9.2
2017-Nov-06 01:00S 27°33' E 153°52'5 9.2
2017-Nov-06 00:26S 27°39' E 153°52'4 9.1
2017-Nov-06 00:00S 27°42' E 153°52'5 9.1
2017-Nov-05 23:30S 27°47' E 153°52'5 9.1
2017-Nov-05 23:00S 27°51' E 153°52'4 8.9
2017-Nov-05 22:30S 27°56' E 153°52'4 8.7
2017-Nov-05 22:00S 28°00' E 153°52'4 8.6
2017-Nov-05 21:30S 28°05' E 153°52'4 8.5
2017-Nov-05 21:00S 28°09' E 153°52'4 8.5
2017-Nov-05 20:30S 28°13' E 153°52'6 8.5
2017-Nov-05 19:50S 28°19' E 153°51'3 8.5
2017-Nov-05 19:30S 28°22' E 153°51'4 8.3
2017-Nov-05 19:00S 28°26' E 153°50'4 8.3
2017-Nov-05 18:30S 28°30' E 153°49'6 8.2
2017-Nov-05 17:47S 28°35' E 153°48'3 8.6
2017-Nov-05 17:30S 28°38' E 153°47'5 9.0
2017-Nov-05 16:59S 28°42' E 153°47'10 9.6
2017-Nov-05 15:58S 28°52' E 153°45'22310.2
2017-Nov-04 18:06S 32°29' E 152°46'211.0
2017-Nov-04 17:52S 32°31' E 152°45'510.7
2017-Nov-04 17:26S 32°36' E 152°44'410.0
2017-Nov-04 17:00S 32°39' E 152°40'5 9.7
2017-Nov-04 16:30S 32°42' E 152°36'5 9.5
2017-Nov-04 16:00S 32°45' E 152°32'5 9.8
2017-Nov-04 15:30S 32°48' E 152°27'5 9.9
2017-Nov-04 15:00S 32°50' E 152°21'510.1
2017-Nov-04 14:30S 32°52' E 152°16'510.3
2017-Nov-04 14:00S 32°54' E 152°10'510.3
2017-Nov-04 13:30S 32°55' E 152°04'510.2
2017-Nov-04 13:00S 32°57' E 151°59'5 9.8
2017-Nov-04 12:30S 32°57' E 151°53'4 7.2
2017-Nov-04 12:00S 32°55' E 151°49'2 4.5
2017-Nov-04 11:30S 32°55' E 151°47'1 3.0
2017-Nov-04 11:00S 32°54' E 151°46'1 2.3
2017-Nov-04 10:29S 32°53' E 151°45'0 0.0
2017-Nov-03 11:38S 32°53' E 151°45'0 0.0
2017-Nov-03 11:26S 32°53' E 151°45'0 0.0
2017-Nov-03 10:50S 32°53' E 151°45'0 0.0
2017-Nov-03 10:08S 32°53' E 151°45'0 0.0
2017-Nov-03 09:59S 32°53' E 151°45'0 0.0
2017-Nov-03 09:29S 32°53' E 151°45'0 0.0
2017-Nov-03 08:56S 32°53' E 151°45'0 0.0
2017-Nov-03 07:50S 32°53' E 151°45'0 0.0
2017-Nov-03 07:29S 32°53' E 151°45'0 0.0
2017-Nov-03 06:47S 32°53' E 151°45'0 0.0
2017-Nov-03 06:29S 32°53' E 151°45'0 0.0
2017-Nov-03 05:56S 32°53' E 151°45'0 0.0
2017-Nov-03 05:29S 32°53' E 151°45'0 0.0
2017-Nov-03 04:59S 32°53' E 151°45'0 0.0
2017-Nov-03 04:11S 32°53' E 151°45'0 0.0
2017-Nov-03 03:59S 32°53' E 151°45'0 0.0
2017-Nov-03 03:11S 32°53' E 151°45'0 0.0
2017-Nov-02 23:29S 32°53' E 151°45'0 0.0
2017-Nov-02 22:56S 32°53' E 151°45'1 1.4
2017-Nov-02 22:30S 32°53' E 151°46'1 2.5
2017-Nov-02 22:00S 32°54' E 151°46'2 5.0
2017-Nov-02 21:30S 32°55' E 151°49'4 8.3
2017-Nov-02 21:00S 32°58' E 151°52'3 4.2
2017-Nov-02 20:19S 33°00' E 151°55'1 4.2
2017-Nov-02 20:00S 33°01' E 151°56'2 4.9
2017-Nov-02 19:30S 33°03' E 151°57'3 5.4
2017-Nov-02 19:00S 33°06' E 151°59'5 9.5
2017-Nov-02 18:30S 33°10' E 151°58'4 7.4
2017-Nov-02 17:58S 33°09' E 152°02'510.8
2017-Nov-02 17:30S 33°05' E 152°05'510.5
2017-Nov-02 17:00S 32°60' E 152°06'510.4
2017-Nov-02 16:30S 32°55' E 152°08'2 3.8
2017-Nov-02 16:00S 32°56' E 152°07'611.1
2017-Nov-02 15:30S 33°01' E 152°04'510.7
2017-Nov-02 15:00S 33°06' E 152°01'510.4
2017-Nov-02 14:30S 33°11' E 151°58'710.0
2017-Nov-02 13:51S 33°15' E 151°53'2 4.0
2017-Nov-02 13:28S 33°14' E 151°53'2 1.3
2017-Nov-02 11:45S 33°15' E 151°55'311.3
2017-Nov-02 11:29S 33°12' E 151°56'511.1
2017-Nov-02 10:59S 33°07' E 151°58'510.8
2017-Nov-02 10:30S 33°02' E 151°59'2 4.3
2017-Nov-02 10:00S 33°03' E 151°57'611.0
2017-Nov-02 09:30S 33°08' E 151°55'8 2.8
2017-Nov-02 06:44S 33°16' E 151°56'2 9.9
2017-Nov-02 06:30S 33°14' E 151°57'5 9.9
2017-Nov-02 06:00S 33°09' E 151°59'5 9.7
2017-Nov-02 05:30S 33°05' E 152°01'5 9.2
2017-Nov-02 05:00S 33°00' E 152°02'4 8.8
2017-Nov-02 04:30S 32°56' E 152°04'4 8.3
2017-Nov-02 04:00S 32°60' E 152°02'611.5
2017-Nov-02 03:30S 33°06' E 152°00'711.4
2017-Nov-02 02:56S 33°12' E 151°59'511.1
2017-Nov-02 02:29S 33°17' E 151°58'1 0.4
2017-Nov-02 01:01S 33°16' E 151°58'010.2
2017-Nov-02 01:00S 33°16' E 151°58'6 8.3
2017-Nov-02 00:20S 33°11' E 152°01'3 7.6
2017-Nov-02 00:00S 33°09' E 152°02'4 7.7
2017-Nov-01 23:30S 33°05' E 152°03'4 7.6
2017-Nov-01 23:00S 33°01' E 152°04'4 7.4
2017-Nov-01 22:30S 32°58' E 152°02'5 9.8
2017-Nov-01 22:00S 33°02' E 152°00'611.6
2017-Nov-01 21:30S 33°08' E 152°00'9 3.4
2017-Nov-01 18:54S 33°17' E 152°01'5 6.0
2017-Nov-01 18:08S 33°13' E 152°03'10 0.6
2017-Nov-01 02:00S 33°03' E 151°60'611.2
2017-Nov-01 01:30S 33°08' E 151°57'8 2.7
2017-Oct-31 22:25S 33°16' E 151°54'3 6.7
2017-Oct-31 21:59S 33°13' E 151°55'3 6.6
2017-Oct-31 21:29S 33°10' E 151°56'3 6.7
2017-Oct-31 21:00S 33°07' E 151°56'3 6.1
2017-Oct-31 20:30S 33°04' E 151°57'4 8.8
2017-Oct-31 20:00S 33°08' E 151°55'611.6
2017-Oct-31 19:29S 33°14' E 151°55'1012.2
2017-Oct-31 18:40S 33°22' E 151°48'7 4.4
2017-Oct-31 17:04S 33°16' E 151°52'2 7.3
2017-Oct-31 16:45S 33°14' E 151°53'3 6.8
2017-Oct-31 16:19S 33°11' E 151°54'2 6.3
2017-Oct-31 16:00S 33°09' E 151°54'3 6.6
2017-Oct-31 15:30S 33°05' E 151°55'3 6.3
2017-Oct-31 15:00S 33°02' E 151°56'3 6.9
2017-Oct-31 14:30S 33°01' E 151°60'4 8.6
2017-Oct-31 14:00S 32°60' E 152°04'4 8.5
2017-Oct-31 13:30S 32°58' E 152°09'4 8.1
2017-Oct-31 13:00S 32°56' E 152°13'4 7.4
2017-Oct-31 12:30S 32°54' E 152°17'4 8.0
2017-Oct-31 12:00S 32°52' E 152°21'4 8.1
2017-Oct-31 11:30S 32°50' E 152°25'4 7.2
2017-Oct-31 11:00S 32°47' E 152°28'4 7.3
2017-Oct-31 10:30S 32°44' E 152°31'4 7.8
2017-Oct-31 10:00S 32°41' E 152°33'4 7.1
2017-Oct-31 09:30S 32°38' E 152°36'4 7.7
2017-Oct-31 09:00S 32°35' E 152°38'4 8.0
2017-Oct-31 08:30S 32°32' E 152°41'4 7.4
2017-Oct-31 07:59S 32°29' E 152°44'3 7.0
2017-Oct-31 07:30S 32°26' E 152°46'20310.2
2017-Oct-30 11:35S 29°10' E 153°50'215.6
2017-Oct-30 11:28S 29°08' E 153°50'715.7
2017-Oct-30 11:00S 29°01' E 153°51'815.9
2017-Oct-30 10:30S 28°53' E 153°52'815.9
2017-Oct-30 10:00S 28°45' E 153°51'816.2
2017-Oct-30 09:30S 28°37' E 153°52'816.1
2017-Oct-30 09:00S 28°29' E 153°52'816.0
2017-Oct-30 08:30S 28°21' E 153°52'816.2
2017-Oct-30 08:00S 28°13' E 153°52'816.2
2017-Oct-30 07:30S 28°05' E 153°53'816.4
2017-Oct-30 07:01S 27°56' E 153°53'816.4
2017-Oct-30 06:30S 27°48' E 153°53'816.4
2017-Oct-30 06:00S 27°40' E 153°53'916.4
2017-Oct-30 05:28S 27°31' E 153°52'716.1
2017-Oct-30 05:00S 27°24' E 153°52'815.8
2017-Oct-30 04:30S 27°16' E 153°52'815.8
2017-Oct-30 04:00S 27°08' E 153°52'816.0
2017-Oct-30 03:30S 26°60' E 153°52'8915.8
2017-Oct-29 21:50S 25°30' E 153°52'10714.5
2017-Oct-29 14:27S 23°44' E 154°05'  
Track history (hours):
 
Tides and Currents Weather Stations Pressure Air Temp Water Temp Dewpoint Dewpoint Depression Visibility Wind Speed Wind Dir Waves Ship Positions

Hl Atlas

Last reported at 2017-Nov-06 01:33 UTC. Time now 2017-Dec-12 19:50 UTC.
Position S 27°28' E 153°52'.
Warning: this ship's position is 36 days out of date.

Length 270 m; draft 15.3 m.

Type: Cargo ship. MMSI: 440332000.

Date/timePositionNaut miles runAvg speedWind from/ knotsBaromVisibWave heightAir tempDewpointWater temp
2017-Nov-06 01:33S 27°28' E 153°52'4 9.1
2017-Nov-06 01:05S 27°32' E 153°52'1 9.2
2017-Nov-06 01:00S 27°33' E 153°52'5 9.2
2017-Nov-06 00:26S 27°39' E 153°52'4 9.1
2017-Nov-06 00:00S 27°42' E 153°52'5 9.1
2017-Nov-05 23:30S 27°47' E 153°52'5 9.1
2017-Nov-05 23:00S 27°51' E 153°52'4 8.9
2017-Nov-05 22:30S 27°56' E 153°52'4 8.7
2017-Nov-05 22:00S 28°00' E 153°52'4 8.6
2017-Nov-05 21:30S 28°05' E 153°52'4 8.5
2017-Nov-05 21:00S 28°09' E 153°52'4 8.5
2017-Nov-05 20:30S 28°13' E 153°52'6 8.5
2017-Nov-05 19:50S 28°19' E 153°51'3 8.5
2017-Nov-05 19:30S 28°22' E 153°51'4 8.3
2017-Nov-05 19:00S 28°26' E 153°50'4 8.3
2017-Nov-05 18:30S 28°30' E 153°49'6 8.2
2017-Nov-05 17:47S 28°35' E 153°48'3 8.6
2017-Nov-05 17:30S 28°38' E 153°47'5 9.0
2017-Nov-05 16:59S 28°42' E 153°47'10 9.6
2017-Nov-05 15:58S 28°52' E 153°45'22310.2
2017-Nov-04 18:06S 32°29' E 152°46'211.0
2017-Nov-04 17:52S 32°31' E 152°45'510.7
2017-Nov-04 17:26S 32°36' E 152°44'410.0
2017-Nov-04 17:00S 32°39' E 152°40'5 9.7
2017-Nov-04 16:30S 32°42' E 152°36'5 9.5
2017-Nov-04 16:00S 32°45' E 152°32'5 9.8
2017-Nov-04 15:30S 32°48' E 152°27'5 9.9
2017-Nov-04 15:00S 32°50' E 152°21'510.1
2017-Nov-04 14:30S 32°52' E 152°16'510.3
2017-Nov-04 14:00S 32°54' E 152°10'510.3
2017-Nov-04 13:30S 32°55' E 152°04'510.2
2017-Nov-04 13:00S 32°57' E 151°59'5 9.8
2017-Nov-04 12:30S 32°57' E 151°53'4 7.2
2017-Nov-04 12:00S 32°55' E 151°49'2 4.5
2017-Nov-04 11:30S 32°55' E 151°47'1 3.0
2017-Nov-04 11:00S 32°54' E 151°46'1 2.3
2017-Nov-04 10:29S 32°53' E 151°45'0 0.0
2017-Nov-03 11:38S 32°53' E 151°45'0 0.0
2017-Nov-03 11:26S 32°53' E 151°45'0 0.0
2017-Nov-03 10:50S 32°53' E 151°45'0 0.0
2017-Nov-03 10:08S 32°53' E 151°45'0 0.0
2017-Nov-03 09:59S 32°53' E 151°45'0 0.0
2017-Nov-03 09:29S 32°53' E 151°45'0 0.0
2017-Nov-03 08:56S 32°53' E 151°45'0 0.0
2017-Nov-03 07:50S 32°53' E 151°45'0 0.0
2017-Nov-03 07:29S 32°53' E 151°45'0 0.0
2017-Nov-03 06:47S 32°53' E 151°45'0 0.0
2017-Nov-03 06:29S 32°53' E 151°45'0 0.0
2017-Nov-03 05:56S 32°53' E 151°45'0 0.0
2017-Nov-03 05:29S 32°53' E 151°45'0 0.0
2017-Nov-03 04:59S 32°53' E 151°45'0 0.0
2017-Nov-03 04:11S 32°53' E 151°45'0 0.0
2017-Nov-03 03:59S 32°53' E 151°45'0 0.0
2017-Nov-03 03:11S 32°53' E 151°45'0 0.0
2017-Nov-02 23:29S 32°53' E 151°45'0 0.0
2017-Nov-02 22:56S 32°53' E 151°45'1 1.4
2017-Nov-02 22:30S 32°53' E 151°46'1 2.5
2017-Nov-02 22:00S 32°54' E 151°46'2 5.0
2017-Nov-02 21:30S 32°55' E 151°49'4 8.3
2017-Nov-02 21:00S 32°58' E 151°52'3 4.2
2017-Nov-02 20:19S 33°00' E 151°55'1 4.2
2017-Nov-02 20:00S 33°01' E 151°56'2 4.9
2017-Nov-02 19:30S 33°03' E 151°57'3 5.4
2017-Nov-02 19:00S 33°06' E 151°59'5 9.5
2017-Nov-02 18:30S 33°10' E 151°58'4 7.4
2017-Nov-02 17:58S 33°09' E 152°02'510.8
2017-Nov-02 17:30S 33°05' E 152°05'510.5
2017-Nov-02 17:00S 32°60' E 152°06'510.4
2017-Nov-02 16:30S 32°55' E 152°08'2 3.8
2017-Nov-02 16:00S 32°56' E 152°07'611.1
2017-Nov-02 15:30S 33°01' E 152°04'510.7
2017-Nov-02 15:00S 33°06' E 152°01'510.4
2017-Nov-02 14:30S 33°11' E 151°58'710.0
2017-Nov-02 13:51S 33°15' E 151°53'2 4.0
2017-Nov-02 13:28S 33°14' E 151°53'2 1.3
2017-Nov-02 11:45S 33°15' E 151°55'311.3
2017-Nov-02 11:29S 33°12' E 151°56'511.1
2017-Nov-02 10:59S 33°07' E 151°58'510.8
2017-Nov-02 10:30S 33°02' E 151°59'2 4.3
2017-Nov-02 10:00S 33°03' E 151°57'611.0
2017-Nov-02 09:30S 33°08' E 151°55'8 2.8
2017-Nov-02 06:44S 33°16' E 151°56'2 9.9
2017-Nov-02 06:30S 33°14' E 151°57'5 9.9
2017-Nov-02 06:00S 33°09' E 151°59'5 9.7
2017-Nov-02 05:30S 33°05' E 152°01'5 9.2
2017-Nov-02 05:00S 33°00' E 152°02'4 8.8
2017-Nov-02 04:30S 32°56' E 152°04'4 8.3
2017-Nov-02 04:00S 32°60' E 152°02'611.5
2017-Nov-02 03:30S 33°06' E 152°00'711.4
2017-Nov-02 02:56S 33°12' E 151°59'511.1
2017-Nov-02 02:29S 33°17' E 151°58'1 0.4
2017-Nov-02 01:01S 33°16' E 151°58'010.2
2017-Nov-02 01:00S 33°16' E 151°58'6 8.3
2017-Nov-02 00:20S 33°11' E 152°01'3 7.6
2017-Nov-02 00:00S 33°09' E 152°02'4 7.7
2017-Nov-01 23:30S 33°05' E 152°03'4 7.6
2017-Nov-01 23:00S 33°01' E 152°04'4 7.4
2017-Nov-01 22:30S 32°58' E 152°02'5 9.8
2017-Nov-01 22:00S 33°02' E 152°00'611.6
2017-Nov-01 21:30S 33°08' E 152°00'9 3.4
2017-Nov-01 18:54S 33°17' E 152°01'5 6.0
2017-Nov-01 18:08S 33°13' E 152°03'10 0.6
2017-Nov-01 02:00S 33°03' E 151°60'611.2
2017-Nov-01 01:30S 33°08' E 151°57'8 2.7
2017-Oct-31 22:25S 33°16' E 151°54'3 6.7
2017-Oct-31 21:59S 33°13' E 151°55'3 6.6
2017-Oct-31 21:29S 33°10' E 151°56'3 6.7
2017-Oct-31 21:00S 33°07' E 151°56'3 6.1
2017-Oct-31 20:30S 33°04' E 151°57'4 8.8
2017-Oct-31 20:00S 33°08' E 151°55'611.6
2017-Oct-31 19:29S 33°14' E 151°55'1012.2
2017-Oct-31 18:40S 33°22' E 151°48'7 4.4
2017-Oct-31 17:04S 33°16' E 151°52'2 7.3
2017-Oct-31 16:45S 33°14' E 151°53'3 6.8
2017-Oct-31 16:19S 33°11' E 151°54'2 6.3
2017-Oct-31 16:00S 33°09' E 151°54'3 6.6
2017-Oct-31 15:30S 33°05' E 151°55'3 6.3
2017-Oct-31 15:00S 33°02' E 151°56'3 6.9
2017-Oct-31 14:30S 33°01' E 151°60'4 8.6
2017-Oct-31 14:00S 32°60' E 152°04'4 8.5
2017-Oct-31 13:30S 32°58' E 152°09'4 8.1
2017-Oct-31 13:00S 32°56' E 152°13'4 7.4
2017-Oct-31 12:30S 32°54' E 152°17'4 8.0
2017-Oct-31 12:00S 32°52' E 152°21'4 8.1
2017-Oct-31 11:30S 32°50' E 152°25'4 7.2
2017-Oct-31 11:00S 32°47' E 152°28'4 7.3
2017-Oct-31 10:30S 32°44' E 152°31'4 7.8
2017-Oct-31 10:00S 32°41' E 152°33'4 7.1
2017-Oct-31 09:30S 32°38' E 152°36'4 7.7
2017-Oct-31 09:00S 32°35' E 152°38'4 8.0
2017-Oct-31 08:30S 32°32' E 152°41'4 7.4
2017-Oct-31 07:59S 32°29' E 152°44'3 7.0
2017-Oct-31 07:30S 32°26' E 152°46'20310.2
2017-Oct-30 11:35S 29°10' E 153°50'215.6
2017-Oct-30 11:28S 29°08' E 153°50'715.7
2017-Oct-30 11:00S 29°01' E 153°51'815.9
2017-Oct-30 10:30S 28°53' E 153°52'815.9
2017-Oct-30 10:00S 28°45' E 153°51'816.2
2017-Oct-30 09:30S 28°37' E 153°52'816.1
2017-Oct-30 09:00S 28°29' E 153°52'816.0
2017-Oct-30 08:30S 28°21' E 153°52'816.2
2017-Oct-30 08:00S 28°13' E 153°52'816.2
2017-Oct-30 07:30S 28°05' E 153°53'816.4
2017-Oct-30 07:01S 27°56' E 153°53'816.4
2017-Oct-30 06:30S 27°48' E 153°53'816.4
2017-Oct-30 06:00S 27°40' E 153°53'916.4
2017-Oct-30 05:28S 27°31' E 153°52'716.1
2017-Oct-30 05:00S 27°24' E 153°52'815.8
2017-Oct-30 04:30S 27°16' E 153°52'815.8
2017-Oct-30 04:00S 27°08' E 153°52'816.0
2017-Oct-30 03:30S 26°60' E 153°52'8915.8
2017-Oct-29 21:50S 25°30' E 153°52'10714.5
2017-Oct-29 14:27S 23°44' E 154°05'  

Dump ship's entire track history